createdAt,value
2022-12-08T00:02:42.528Z,1.36
2022-12-08T00:06:05.338Z,1.35
2022-12-08T00:09:22.571Z,1.31
2022-12-08T00:12:25.323Z,1.29
2022-12-08T00:15:27.769Z,1.29
2022-12-08T00:18:30.523Z,1.29
2022-12-08T00:21:32.985Z,1.28
2022-12-08T00:24:39.720Z,1.29
2022-12-08T00:27:42.252Z,1.27
2022-12-08T00:30:45.279Z,1.26
2022-12-08T00:33:47.859Z,1.22
2022-12-08T00:36:50.680Z,1.28
2022-12-08T00:39:53.186Z,1.31
2022-12-08T00:42:56.015Z,1.34
2022-12-08T00:45:58.657Z,1.36
2022-12-08T00:49:01.593Z,1.36
2022-12-08T00:52:04.241Z,1.42
2022-12-08T00:55:07.327Z,1.45
2022-12-08T00:58:09.927Z,1.46
2022-12-08T01:01:14.113Z,1.49
2022-12-08T01:04:18.605Z,1.50
2022-12-08T01:07:21.399Z,1.50
2022-12-08T01:10:23.907Z,1.51
2022-12-08T01:13:26.666Z,1.55
2022-12-08T01:16:32.157Z,1.56
2022-12-08T01:19:35.059Z,1.57
2022-12-08T01:22:37.485Z,1.56
2022-12-08T01:25:40.204Z,1.57
2022-12-08T01:28:43.033Z,1.60
2022-12-08T01:31:45.784Z,1.59
2022-12-08T01:34:48.308Z,1.60
2022-12-08T01:37:51.215Z,1.63
2022-12-08T01:40:53.720Z,1.61
2022-12-08T01:44:01.949Z,1.63
2022-12-08T01:47:04.450Z,1.61
2022-12-08T01:50:09.473Z,1.58
2022-12-08T01:53:15.176Z,1.55
2022-12-08T01:56:30.241Z,1.48
2022-12-08T01:59:35.927Z,1.47
2022-12-08T02:03:04.595Z,1.50
2022-12-08T02:06:07.883Z,1.49
2022-12-08T02:09:10.979Z,1.48
2022-12-08T02:12:13.772Z,1.46
2022-12-08T02:15:16.364Z,1.48
2022-12-08T02:18:30.606Z,1.48
2022-12-08T02:22:04.670Z,1.42
2022-12-08T02:25:22.557Z,1.48
2022-12-08T02:28:49.956Z,1.47
2022-12-08T02:32:15.863Z,1.45
2022-12-08T02:35:45.440Z,1.46
2022-12-08T02:38:51.074Z,1.42
2022-12-08T02:42:06.370Z,1.41
2022-12-08T02:45:14.766Z,1.42
2022-12-08T02:48:17.404Z,1.42
2022-12-08T02:51:20.135Z,1.41
2022-12-08T02:54:22.648Z,1.42
2022-12-08T02:57:31.035Z,1.41
2022-12-08T03:01:00.202Z,1.40
2022-12-08T03:04:21.283Z,1.40
2022-12-08T03:07:42.202Z,1.42
2022-12-08T03:11:20.443Z,1.42
2022-12-08T03:14:22.945Z,1.42
2022-12-08T03:17:28.929Z,1.40
2022-12-08T03:20:34.893Z,1.41
2022-12-08T03:23:38.439Z,1.39
2022-12-08T03:26:49.023Z,1.39
2022-12-08T03:29:54.871Z,1.38
2022-12-08T03:33:11.200Z,1.37
2022-12-08T03:36:14.685Z,1.37
2022-12-08T03:39:17.396Z,1.35
2022-12-08T03:42:20.378Z,1.32
2022-12-08T03:45:22.942Z,1.32
2022-12-08T03:48:25.715Z,1.33
2022-12-08T03:51:28.336Z,1.31
2022-12-08T03:54:31.073Z,1.29
2022-12-08T03:57:33.728Z,1.29
2022-12-08T04:00:36.547Z,1.29
2022-12-08T04:03:39.276Z,1.28
2022-12-08T04:06:41.780Z,1.29
2022-12-08T04:09:45.603Z,1.30
2022-12-08T04:12:48.274Z,1.30
2022-12-08T04:15:51.162Z,1.31
2022-12-08T04:18:54.126Z,1.32
2022-12-08T04:21:56.940Z,1.35
2022-12-08T04:24:59.440Z,1.34
2022-12-08T04:28:03.229Z,1.31
2022-12-08T04:31:05.959Z,1.28
2022-12-08T04:34:09.497Z,1.29
2022-12-08T04:37:11.972Z,1.28
2022-12-08T04:40:15.059Z,1.30
2022-12-08T04:43:17.605Z,1.31
2022-12-08T04:46:20.496Z,1.31
2022-12-08T04:49:23.059Z,1.29
2022-12-08T04:52:25.801Z,1.31
2022-12-08T04:55:28.324Z,1.32
2022-12-08T04:58:31.289Z,1.31
2022-12-08T05:01:33.990Z,1.32
2022-12-08T05:04:36.795Z,1.33
2022-12-08T05:07:39.322Z,1.34
2022-12-08T05:10:42.085Z,1.34
2022-12-08T05:13:44.616Z,1.35
2022-12-08T05:16:47.666Z,1.35
2022-12-08T05:19:50.381Z,1.35
2022-12-08T05:22:53.210Z,1.35
2022-12-08T05:25:55.976Z,1.34
2022-12-08T05:28:58.805Z,1.33
2022-12-08T05:32:01.347Z,1.34
2022-12-08T05:35:04.330Z,1.33
2022-12-08T05:38:07.297Z,1.33
2022-12-08T05:41:11.869Z,1.34
2022-12-08T05:44:14.455Z,1.34
2022-12-08T05:47:17.254Z,1.31
2022-12-08T05:50:19.784Z,1.32
2022-12-08T05:53:22.677Z,1.29
2022-12-08T05:56:25.148Z,1.19
2022-12-08T05:59:27.867Z,1.29
2022-12-08T06:02:30.554Z,1.32
2022-12-08T06:05:34.528Z,1.32
2022-12-08T06:08:37.039Z,1.31
2022-12-08T06:11:39.782Z,1.33
2022-12-08T06:14:42.367Z,1.38
2022-12-08T06:17:45.213Z,1.42
2022-12-08T06:20:48.092Z,1.48
2022-12-08T06:23:52.347Z,1.51
2022-12-08T06:26:54.771Z,1.54
2022-12-08T06:29:57.923Z,1.57
2022-12-08T06:33:00.502Z,1.55
2022-12-08T06:36:03.982Z,1.57
2022-12-08T06:39:06.561Z,1.55
2022-12-08T06:42:27.974Z,1.58
2022-12-08T06:45:30.681Z,1.56
2022-12-08T06:48:33.924Z,1.59
2022-12-08T06:51:36.534Z,1.58
2022-12-08T06:54:39.475Z,1.61
2022-12-08T06:57:41.980Z,1.58
2022-12-08T07:00:45.100Z,1.63
2022-12-08T07:03:48.125Z,1.65
2022-12-08T07:06:51.480Z,1.69
2022-12-08T07:09:53.951Z,1.71
2022-12-08T07:12:56.759Z,1.64
2022-12-08T07:15:59.513Z,1.82
2022-12-08T07:19:02.511Z,1.87
2022-12-08T07:22:05.224Z,1.89
2022-12-08T07:25:08.830Z,1.93
2022-12-08T07:28:12.441Z,1.98
2022-12-08T07:31:21.308Z,2.04
2022-12-08T07:34:23.982Z,2.10
2022-12-08T07:37:27.030Z,2.12
2022-12-08T07:40:29.688Z,2.19
2022-12-08T07:43:32.521Z,2.22
2022-12-08T07:46:35.173Z,2.27
2022-12-08T07:49:38.292Z,2.33
2022-12-08T07:52:40.856Z,2.42
2022-12-08T07:55:44.177Z,2.47
2022-12-08T07:58:47.044Z,2.50
2022-12-08T08:02:13.204Z,2.51
2022-12-08T08:05:14.367Z,2.60
2022-12-08T08:08:17.759Z,2.53
2022-12-08T08:11:21.781Z,2.55
2022-12-08T08:14:24.558Z,2.60
2022-12-08T08:17:28.582Z,2.62
2022-12-08T08:20:31.289Z,2.63
2022-12-08T08:23:35.195Z,2.64
2022-12-08T08:26:38.226Z,2.69
2022-12-08T08:29:41.231Z,2.56
2022-12-08T08:32:44.679Z,2.73
2022-12-08T08:35:47.695Z,2.71
2022-12-08T08:38:50.400Z,2.72
2022-12-08T08:41:53.448Z,2.71
2022-12-08T08:44:56.040Z,2.77
2022-12-08T08:47:58.910Z,2.81
2022-12-08T08:51:08.879Z,2.78
2022-12-08T08:54:12.077Z,2.79
2022-12-08T08:57:14.670Z,2.83
2022-12-08T09:00:17.845Z,2.79
2022-12-08T09:03:20.569Z,2.81
2022-12-08T09:06:23.744Z,2.82
2022-12-08T09:09:26.426Z,2.70
2022-12-08T09:12:29.415Z,2.83
2022-12-08T09:15:32.225Z,2.82
2022-12-08T09:18:35.142Z,2.83
2022-12-08T09:21:37.758Z,2.81
2022-12-08T09:24:40.737Z,2.83
2022-12-08T09:27:43.584Z,2.84
2022-12-08T09:30:46.396Z,2.86
2022-12-08T09:33:51.831Z,2.96
2022-12-08T09:36:55.107Z,2.98
2022-12-08T09:39:57.691Z,2.98
2022-12-08T09:43:22.005Z,3.11
2022-12-08T09:46:26.627Z,3.20
2022-12-08T09:49:45.914Z,3.26
2022-12-08T09:53:01.711Z,3.29
2022-12-08T09:56:16.923Z,3.20
2022-12-08T09:59:34.600Z,3.21
2022-12-08T10:02:37.319Z,3.28
2022-12-08T10:05:49.167Z,3.32
2022-12-08T10:09:12.625Z,3.35
2022-12-08T10:12:44.864Z,3.43
2022-12-08T10:16:00.248Z,3.40
2022-12-08T10:19:21.578Z,3.20
2022-12-08T10:22:25.988Z,3.39
2022-12-08T10:25:35.297Z,3.37
2022-12-08T10:28:44.481Z,3.45
2022-12-08T10:31:48.370Z,3.41
2022-12-08T10:35:04.562Z,3.42
2022-12-08T10:38:18.806Z,3.35
2022-12-08T10:41:22.995Z,3.39
2022-12-08T10:44:26.001Z,3.41
2022-12-08T10:47:29.643Z,3.43
2022-12-08T10:50:36.983Z,3.49
2022-12-08T10:53:46.217Z,3.54
2022-12-08T10:56:55.028Z,3.43
2022-12-08T10:59:57.771Z,3.73
2022-12-08T11:03:05.204Z,3.81
2022-12-08T11:06:38.190Z,3.86
2022-12-08T11:09:48.964Z,3.93
2022-12-08T11:12:51.645Z,4.04
2022-12-08T11:15:55.344Z,4.09
2022-12-08T11:18:58.613Z,4.09
2022-12-08T11:22:01.554Z,4.14
2022-12-08T11:25:12.061Z,4.15
2022-12-08T11:28:16.396Z,4.20
2022-12-08T11:31:36.740Z,4.25
2022-12-08T11:34:46.184Z,4.31
2022-12-08T11:37:49.597Z,4.12
2022-12-08T11:41:07.454Z,4.35
2022-12-08T11:44:27.314Z,4.50
2022-12-08T11:47:55.474Z,4.33
2022-12-08T11:51:14.151Z,4.40
2022-12-08T11:54:46.330Z,4.38
2022-12-08T11:57:49.100Z,4.31
2022-12-08T12:00:52.095Z,4.30
2022-12-08T12:04:10.277Z,4.35
2022-12-08T12:07:26.570Z,4.33
2022-12-08T12:10:48.004Z,4.28
2022-12-08T12:14:32.094Z,4.10
2022-12-08T12:17:41.223Z,4.22
2022-12-08T12:20:59.415Z,4.26
2022-12-08T12:24:08.247Z,4.19
2022-12-08T12:27:13.699Z,4.16
2022-12-08T12:30:23.937Z,4.00
2022-12-08T12:33:26.749Z,4.04
2022-12-08T12:36:31.254Z,4.11
2022-12-08T12:39:46.651Z,4.05
2022-12-08T12:42:55.458Z,4.06
2022-12-08T12:46:23.804Z,4.04
2022-12-08T12:49:39.271Z,3.97
2022-12-08T12:52:42.077Z,3.93
2022-12-08T12:55:58.265Z,3.93
2022-12-08T12:59:29.522Z,3.90
2022-12-08T13:02:32.591Z,3.88
2022-12-08T13:05:48.927Z,3.75
2022-12-08T13:08:56.404Z,3.87
2022-12-08T13:12:01.623Z,3.88
2022-12-08T13:15:07.134Z,3.86
2022-12-08T13:18:29.788Z,3.83
2022-12-08T13:21:37.273Z,3.76
2022-12-08T13:24:39.935Z,3.80
2022-12-08T13:27:52.526Z,3.68
2022-12-08T13:31:00.293Z,3.67
2022-12-08T13:34:07.260Z,3.77
2022-12-08T13:37:13.778Z,3.72
2022-12-08T13:40:21.307Z,3.81
2022-12-08T13:43:38.748Z,3.63
2022-12-08T13:57:18.743Z,3.77
2022-12-08T14:00:23.795Z,3.70
2022-12-08T14:03:27.403Z,3.73
2022-12-08T14:06:38.899Z,3.59
2022-12-08T14:09:42.144Z,3.55
2022-12-08T14:12:47.388Z,3.52
2022-12-08T14:15:50.356Z,3.51
2022-12-08T14:18:53.049Z,3.43
2022-12-08T14:21:59.002Z,3.32
2022-12-08T14:25:06.319Z,3.23
2022-12-08T14:28:10.662Z,3.18
2022-12-08T14:31:14.699Z,3.13
2022-12-08T14:34:17.906Z,3.11
2022-12-08T14:37:20.766Z,3.09
2022-12-08T14:40:36.944Z,3.04
2022-12-08T14:43:41.029Z,3.04
2022-12-08T14:47:09.881Z,2.98
2022-12-08T14:50:45.212Z,2.99
2022-12-08T14:53:55.033Z,2.98
2022-12-08T14:56:58.148Z,2.96
2022-12-08T15:00:08.472Z,2.95
2022-12-08T15:03:12.705Z,2.94
2022-12-08T15:06:16.083Z,2.93
2022-12-08T15:09:36.549Z,2.91
2022-12-08T15:12:39.371Z,2.96
2022-12-08T15:15:54.837Z,2.93
2022-12-08T15:19:17.038Z,2.91
2022-12-08T15:22:21.756Z,2.91
2022-12-08T15:25:25.007Z,2.88
2022-12-08T15:28:30.280Z,2.86
2022-12-08T15:31:33.448Z,2.84
2022-12-08T15:34:37.240Z,2.83
2022-12-08T15:37:40.442Z,2.81
2022-12-08T15:40:43.101Z,2.80
2022-12-08T15:43:45.941Z,2.77
2022-12-08T15:46:50.099Z,2.79
2022-12-08T15:49:53.207Z,2.79
2022-12-08T15:52:55.752Z,2.79
2022-12-08T15:59:29.609Z,2.82
2022-12-08T16:02:56.286Z,2.74
2022-12-08T16:06:44.317Z,2.86
2022-12-08T16:09:31.879Z,2.87
2022-12-08T16:16:21.448Z,2.88
2022-12-08T16:19:24.925Z,2.83
2022-12-08T16:22:54.189Z,2.84
2022-12-08T16:26:20.456Z,2.86
2022-12-08T16:29:22.644Z,2.84
2022-12-08T16:32:26.241Z,2.87
2022-12-08T16:35:28.901Z,2.88
2022-12-08T16:38:31.893Z,2.92
2022-12-08T16:41:52.904Z,2.95
2022-12-08T16:44:55.868Z,2.95
2022-12-08T16:48:00.293Z,2.95
2022-12-08T16:51:04.635Z,2.96
2022-12-08T16:54:07.175Z,3.01
2022-12-08T16:57:09.954Z,3.02
2022-12-08T17:00:16.427Z,3.03
2022-12-08T17:03:19.212Z,3.05
2022-12-08T17:06:21.752Z,3.12
2022-12-08T17:09:25.363Z,3.15
2022-12-08T17:12:28.036Z,3.14
2022-12-08T17:15:30.868Z,3.14
2022-12-08T17:18:33.440Z,3.19
2022-12-08T17:21:36.129Z,3.22
2022-12-08T17:24:38.661Z,3.21
2022-12-08T17:27:42.568Z,3.16
2022-12-08T17:30:45.288Z,3.13
2022-12-08T17:33:48.134Z,3.11
2022-12-08T17:36:51.115Z,3.12
2022-12-08T17:39:54.013Z,3.10
2022-12-08T17:42:56.647Z,3.09
2022-12-08T17:45:59.866Z,3.08
2022-12-08T17:49:03.329Z,3.04
2022-12-08T17:52:10.015Z,3.03
2022-12-08T17:55:12.511Z,3.03
2022-12-08T17:58:15.515Z,3.04
2022-12-08T18:01:18.094Z,3.08
2022-12-08T18:04:21.378Z,3.07
2022-12-08T18:07:23.935Z,3.10
2022-12-08T18:10:26.801Z,3.11
2022-12-08T18:13:30.081Z,3.10
2022-12-08T18:16:33.187Z,3.11
2022-12-08T18:19:35.889Z,3.13
2022-12-08T18:22:38.872Z,3.11
2022-12-08T18:25:41.366Z,3.15
2022-12-08T18:28:44.450Z,3.11
2022-12-08T18:31:47.261Z,3.10
2022-12-08T18:34:50.688Z,3.11
2022-12-08T18:37:53.419Z,3.08
2022-12-08T18:40:56.197Z,3.08
2022-12-08T18:43:58.792Z,3.08
2022-12-08T18:47:01.593Z,3.04
2022-12-08T18:50:06.956Z,3.04
2022-12-08T18:53:09.986Z,3.07
2022-12-08T18:56:29.929Z,3.07
2022-12-08T18:59:32.970Z,3.04
2022-12-08T19:02:36.915Z,3.03
2022-12-08T19:05:40.357Z,3.01
2022-12-08T19:08:43.632Z,2.98
2022-12-08T19:11:46.926Z,2.92
2022-12-08T19:14:50.170Z,2.87
2022-12-08T19:17:53.279Z,2.89
2022-12-08T19:20:56.983Z,2.85
2022-12-08T19:24:00.096Z,2.88
2022-12-08T19:27:04.237Z,2.80
2022-12-08T19:30:08.241Z,2.77
2022-12-08T19:33:11.308Z,2.73
2022-12-08T19:36:16.867Z,2.70
2022-12-08T19:39:40.310Z,2.71
2022-12-08T19:43:02.298Z,2.74
2022-12-08T19:46:05.796Z,2.67
2022-12-08T19:49:09.182Z,2.65
2022-12-08T19:52:11.943Z,2.67
2022-12-08T19:55:15.109Z,2.66
2022-12-08T19:58:19.377Z,2.68
2022-12-08T20:01:22.607Z,2.68
2022-12-08T20:04:26.606Z,2.71
2022-12-08T20:07:29.336Z,2.72
2022-12-08T20:10:34.923Z,2.72
2022-12-08T20:13:45.764Z,2.73
2022-12-08T20:16:50.697Z,2.77
2022-12-08T20:19:53.305Z,2.75
2022-12-08T20:22:56.403Z,2.79
2022-12-08T20:25:59.368Z,2.79
2022-12-08T20:29:02.400Z,2.80
2022-12-08T20:32:06.326Z,2.84
2022-12-08T20:35:09.479Z,2.84
2022-12-08T20:38:12.717Z,2.85
2022-12-08T20:41:16.239Z,2.87
2022-12-08T20:44:18.933Z,2.89
2022-12-08T20:47:22.080Z,2.89
2022-12-08T20:50:25.262Z,2.90
2022-12-08T20:53:28.484Z,2.93
2022-12-08T20:56:34.722Z,2.94
2022-12-08T20:59:37.832Z,2.96
2022-12-08T21:02:46.868Z,2.97
2022-12-08T21:05:52.577Z,2.97
2022-12-08T21:08:55.411Z,3.00
2022-12-08T21:11:58.318Z,3.00
2022-12-08T21:15:01.025Z,3.01
2022-12-08T21:18:04.751Z,3.02
2022-12-08T21:21:15.062Z,2.98
2022-12-08T21:24:18.768Z,2.99
2022-12-08T21:27:21.593Z,3.01
2022-12-08T21:30:25.749Z,3.02
2022-12-08T21:33:28.388Z,2.96
2022-12-08T21:36:31.383Z,2.99
2022-12-08T21:39:34.005Z,2.97
2022-12-08T21:42:45.842Z,2.92
2022-12-08T21:45:48.777Z,2.89
2022-12-08T21:48:51.641Z,2.89
2022-12-08T21:51:54.651Z,2.90
2022-12-08T21:54:57.496Z,2.92
2022-12-08T21:58:01.012Z,2.94
2022-12-08T22:01:08.075Z,2.91
2022-12-08T22:04:12.590Z,2.92
2022-12-08T22:07:16.307Z,2.94
2022-12-08T22:10:21.076Z,2.92
2022-12-08T22:13:23.614Z,2.95
2022-12-08T22:16:26.402Z,2.90
2022-12-08T22:19:30.665Z,2.92
2022-12-08T22:22:34.968Z,2.95
2022-12-08T22:25:37.635Z,2.96
2022-12-08T22:28:41.669Z,2.99
2022-12-08T22:31:44.300Z,2.97
2022-12-08T22:34:47.380Z,2.93
2022-12-08T22:37:50.215Z,2.95
2022-12-08T22:40:53.489Z,2.98
2022-12-08T22:43:55.998Z,2.97
2022-12-08T22:46:58.821Z,2.98
2022-12-08T22:50:01.875Z,2.99
2022-12-08T22:53:20.359Z,3.01
2022-12-08T22:56:22.907Z,3.01
2022-12-08T22:59:25.922Z,2.99
2022-12-08T23:02:28.482Z,3.00
2022-12-08T23:05:36.303Z,3.01
2022-12-08T23:08:39.017Z,3.03
2022-12-08T23:11:41.840Z,3.01
2022-12-08T23:14:44.558Z,3.03
2022-12-08T23:17:47.462Z,3.04
2022-12-08T23:20:50.200Z,3.04
2022-12-08T23:23:53.035Z,3.05
2022-12-08T23:26:55.695Z,3.07
2022-12-08T23:29:58.633Z,3.04
2022-12-08T23:33:01.376Z,3.05
2022-12-08T23:36:04.501Z,3.02
2022-12-08T23:39:07.344Z,2.99
2022-12-08T23:42:10.190Z,2.97
2022-12-08T23:45:12.950Z,2.97
2022-12-08T23:48:15.783Z,2.96
2022-12-08T23:51:18.472Z,2.96
2022-12-08T23:54:21.452Z,2.96
2022-12-08T23:57:23.904Z,2.95
